sensor_id;sensor_type;location;lat;lon;timestamp;pressure;altitude;pressure_sealevel;temperature
25985;BMP280;66753;53.848;10.658;2024-03-02T00:13:08;100575.28;;;10.18
25985;BMP280;66753;53.848;10.658;2024-03-02T00:28:21;100560.81;;;10.16
25985;BMP280;66753;53.848;10.658;2024-03-02T00:58:58;100544.97;;;10.04
25985;BMP280;66753;53.848;10.658;2024-03-02T01:14:00;100536.34;;;9.95
25985;BMP280;66753;53.848;10.658;2024-03-02T01:29:01;100542.75;;;9.82
25985;BMP280;66753;53.848;10.658;2024-03-02T01:44:02;100532.72;;;9.63
25985;BMP280;66753;53.848;10.658;2024-03-02T01:59:04;100521.81;;;9.53
25985;BMP280;66753;53.848;10.658;2024-03-02T02:14:07;100497.72;;;9.46
25985;BMP280;66753;53.848;10.658;2024-03-02T02:29:08;100502.16;;;9.42
25985;BMP280;66753;53.848;10.658;2024-03-02T02:44:09;100505.78;;;9.37
25985;BMP280;66753;53.848;10.658;2024-03-02T02:59:14;100512.38;;;9.31
25985;BMP280;66753;53.848;10.658;2024-03-02T03:14:15;100506.09;;;9.24
25985;BMP280;66753;53.848;10.658;2024-03-02T03:29:16;100502.13;;;9.18
25985;BMP280;66753;53.848;10.658;2024-03-02T03:44:18;100504.19;;;9.12
25985;BMP280;66753;53.848;10.658;2024-03-02T03:59:19;100502.09;;;9.06
25985;BMP280;66753;53.848;10.658;2024-03-02T04:14:20;100504.50;;;8.99
25985;BMP280;66753;53.848;10.658;2024-03-02T04:29:22;100508.25;;;8.98
25985;BMP280;66753;53.848;10.658;2024-03-02T04:44:23;100514.16;;;8.94
25985;BMP280;66753;53.848;10.658;2024-03-02T04:59:24;100520.88;;;8.92
25985;BMP280;66753;53.848;10.658;2024-03-02T05:14:26;100519.22;;;8.88
25985;BMP280;66753;53.848;10.658;2024-03-02T05:29:29;100501.88;;;8.78
25985;BMP280;66753;53.848;10.658;2024-03-02T05:44:30;100502.22;;;8.76
25985;BMP280;66753;53.848;10.658;2024-03-02T05:59:32;100496.53;;;8.66
25985;BMP280;66753;53.848;10.658;2024-03-02T06:14:33;100523.19;;;8.73
25985;BMP280;66753;53.848;10.658;2024-03-02T06:29:34;100531.19;;;8.85
25985;BMP280;66753;53.848;10.658;2024-03-02T06:44:35;100545.44;;;8.93
25985;BMP280;66753;53.848;10.658;2024-03-02T06:59:36;100550.31;;;9.02
25985;BMP280;66753;53.848;10.658;2024-03-02T07:14:38;100543.66;;;9.17
25985;BMP280;66753;53.848;10.658;2024-03-02T07:30:08;100577.78;;;9.55
25985;BMP280;66753;53.848;10.658;2024-03-02T07:45:12;100583.81;;;9.88
25985;BMP280;66753;53.848;10.658;2024-03-02T08:00:13;100604.53;;;10.34
25985;BMP280;66753;53.848;10.658;2024-03-02T08:15:16;100617.72;;;10.70
25985;BMP280;66753;53.848;10.658;2024-03-02T08:30:17;100603.31;;;10.83
25985;BMP280;66753;53.848;10.658;2024-03-02T08:45:18;100626.84;;;11.12
25985;BMP280;66753;53.848;10.658;2024-03-02T09:00:20;100644.28;;;11.40
25985;BMP280;66753;53.848;10.658;2024-03-02T09:15:22;100649.97;;;11.70
25985;BMP280;66753;53.848;10.658;2024-03-02T09:30:23;100643.56;;;12.02
25985;BMP280;66753;53.848;10.658;2024-03-02T09:45:25;100655.84;;;12.79
25985;BMP280;66753;53.848;10.658;2024-03-02T10:00:26;100670.38;;;13.64
25985;BMP280;66753;53.848;10.658;2024-03-02T10:15:27;100653.50;;;14.02
25985;BMP280;66753;53.848;10.658;2024-03-02T10:30:29;100642.91;;;14.35
25985;BMP280;66753;53.848;10.658;2024-03-02T10:45:30;100631.44;;;14.64
25985;BMP280;66753;53.848;10.658;2024-03-02T11:00:33;100627.81;;;14.79
25985;BMP280;66753;53.848;10.658;2024-03-02T11:15:35;100621.50;;;14.94
25985;BMP280;66753;53.848;10.658;2024-03-02T11:45:46;100613.19;;;15.46
25985;BMP280;66753;53.848;10.658;2024-03-02T12:00:50;100613.91;;;16.00
25985;BMP280;66753;53.848;10.658;2024-03-02T12:15:54;100616.09;;;16.59
25985;BMP280;66753;53.848;10.658;2024-03-02T12:30:56;100600.09;;;16.80
25985;BMP280;66753;53.848;10.658;2024-03-02T12:45:58;100575.19;;;17.43
25985;BMP280;66753;53.848;10.658;2024-03-02T13:01:07;100571.97;;;18.11
25985;BMP280;66753;53.848;10.658;2024-03-02T13:16:12;100564.03;;;17.65
25985;BMP280;66753;53.848;10.658;2024-03-02T13:31:14;100553.41;;;17.20
25985;BMP280;66753;53.848;10.658;2024-03-02T13:46:15;100556.09;;;16.85
25985;BMP280;66753;53.848;10.658;2024-03-02T14:01:17;100550.31;;;16.55
25985;BMP280;66753;53.848;10.658;2024-03-02T14:16:18;100552.16;;;16.37
25985;BMP280;66753;53.848;10.658;2024-03-02T14:31:19;100554.78;;;16.16
25985;BMP280;66753;53.848;10.658;2024-03-02T14:46:20;100557.75;;;16.00
25985;BMP280;66753;53.848;10.658;2024-03-02T15:01:21;100544.72;;;15.78
25985;BMP280;66753;53.848;10.658;2024-03-02T15:16:25;100539.56;;;15.52
25985;BMP280;66753;53.848;10.658;2024-03-02T15:31:28;100545.31;;;15.54
25985;BMP280;66753;53.848;10.658;2024-03-02T15:46:30;100553.75;;;15.63
25985;BMP280;66753;53.848;10.658;2024-03-02T16:01:31;100537.16;;;15.33
25985;BMP280;66753;53.848;10.658;2024-03-02T16:16:33;100558.38;;;15.15
25985;BMP280;66753;53.848;10.658;2024-03-02T16:31:35;100552.69;;;14.77
25985;BMP280;66753;53.848;10.658;2024-03-02T16:46:36;100566.38;;;14.39
25985;BMP280;66753;53.848;10.658;2024-03-02T17:01:40;100571.06;;;13.90
25985;BMP280;66753;53.848;10.658;2024-03-02T17:16:42;100570.47;;;13.51
25985;BMP280;66753;53.848;10.658;2024-03-02T17:31:43;100591.88;;;13.10
25985;BMP280;66753;53.848;10.658;2024-03-02T17:46:44;100610.38;;;12.84
25985;BMP280;66753;53.848;10.658;2024-03-02T18:01:45;100616.84;;;12.86
25985;BMP280;66753;53.848;10.658;2024-03-02T18:16:46;100634.72;;;12.86
25985;BMP280;66753;53.848;10.658;2024-03-02T18:31:48;100645.75;;;12.84
25985;BMP280;66753;53.848;10.658;2024-03-02T18:46:50;100652.66;;;12.70
25985;BMP280;66753;53.848;10.658;2024-03-02T19:01:52;100655.00;;;12.56
25985;BMP280;66753;53.848;10.658;2024-03-02T19:16:54;100666.66;;;12.32
25985;BMP280;66753;53.848;10.658;2024-03-02T19:31:56;100684.28;;;12.75
25985;BMP280;66753;53.848;10.658;2024-03-02T19:46:59;100678.47;;;12.88
25985;BMP280;66753;53.848;10.658;2024-03-02T20:02:01;100675.34;;;12.64
25985;BMP280;66753;53.848;10.658;2024-03-02T20:17:02;100691.91;;;12.57
25985;BMP280;66753;53.848;10.658;2024-03-02T20:32:04;100677.63;;;12.31
25985;BMP280;66753;53.848;10.658;2024-03-02T20:47:07;100672.47;;;11.76
25985;BMP280;66753;53.848;10.658;2024-03-02T21:02:08;100665.63;;;11.16
25985;BMP280;66753;53.848;10.658;2024-03-02T21:17:10;100659.91;;;10.51
25985;BMP280;66753;53.848;10.658;2024-03-02T21:32:11;100656.19;;;10.04
25985;BMP280;66753;53.848;10.658;2024-03-02T21:47:13;100653.44;;;9.68
25985;BMP280;66753;53.848;10.658;2024-03-02T22:02:15;100644.88;;;9.38
25985;BMP280;66753;53.848;10.658;2024-03-02T22:17:17;100634.47;;;9.01
25985;BMP280;66753;53.848;10.658;2024-03-02T22:32:18;100637.88;;;8.80
25985;BMP280;66753;53.848;10.658;2024-03-02T22:47:20;100636.22;;;8.67
25985;BMP280;66753;53.848;10.658;2024-03-02T23:02:21;100649.53;;;8.59
25985;BMP280;66753;53.848;10.658;2024-03-02T23:17:24;100663.19;;;8.52
25985;BMP280;66753;53.848;10.658;2024-03-02T23:32:25;100654.13;;;8.41
25985;BMP280;66753;53.848;10.658;2024-03-02T23:47:27;100663.50;;;8.30
